Felt, Oklahoma
Current Conditions -  °F | °C
As of 9:55 AM on Sunday 21 Dec 2014 (Local Time) from KCAO Reporting Station
Clear Clear  
Wind Chill: 41°   Ceiling: Unl
Heat Index: 46°   Visibility: 10mi
Dew Point: 22°   Wind: 12mph
Humidity: 39%   Direction: 270°W
Pressure: 29.81"   Gusts: NA
Location:  36.57°N, 102.79°W
Report Text: KCAO 211555Z AUTO 27010KT 10SM CLR 08/M06 A2981 RMK AO2 SLP086 T00781056
Loading
Personal Weather Stations






























Interactive Weather Map New forecast layout! Learn more

10-Day Weather Forecast

Advertisements
Track Severe Weather on mobile